Rode Heath, United Kingdom
Current Conditions -  °F | °C
As of 8:20 AM on Monday 22 Dec 2014 (Local Time) from EGCC Reporting Station
Broken Clouds Broken Clouds  
Wind Chill: 54°   Ceiling: 2800
Heat Index: 54°   Visibility: 6mi
Dew Point: 48°   Wind: 22mph
Humidity: 82%   Direction: 230°SW
Pressure: 29.85"   Gusts: NA
Location:  53.12°N, 2.28°W
Report Text: EGCC 220820Z 23019KT 9999 FEW022 BKN028 12/09 Q1011 NOSIG
Loading
Personal Weather Stations






























Interactive Weather Map New forecast layout! Learn more

10-Day Weather Forecast

Advertisements
Track Severe Weather on mobile